sensor_id;sensor_type;location;lat;lon;timestamp;temperature;humidity
63013;DHT22;62113;45.624;11.700;2023-11-21T00:00:25;11.50;64.10
63013;DHT22;62113;45.624;11.700;2023-11-21T00:02:51;11.50;63.70
63013;DHT22;62113;45.624;11.700;2023-11-21T00:05:16;11.40;63.50
63013;DHT22;62113;45.624;11.700;2023-11-21T00:07:43;11.50;63.50
63013;DHT22;62113;45.624;11.700;2023-11-21T00:10:08;11.50;63.90
63013;DHT22;62113;45.624;11.700;2023-11-21T00:12:35;11.50;63.80
63013;DHT22;62113;45.624;11.700;2023-11-21T00:15:01;11.50;64.20
63013;DHT22;62113;45.624;11.700;2023-11-21T00:17:27;11.50;64.40
63013;DHT22;62113;45.624;11.700;2023-11-21T00:19:52;11.50;64.00
63013;DHT22;62113;45.624;11.700;2023-11-21T00:22:18;11.50;63.60
63013;DHT22;62113;45.624;11.700;2023-11-21T00:24:43;11.50;63.70
63013;DHT22;62113;45.624;11.700;2023-11-21T00:27:09;11.50;64.20
63013;DHT22;62113;45.624;11.700;2023-11-21T00:29:35;11.50;64.10
63013;DHT22;62113;45.624;11.700;2023-11-21T00:32:00;11.50;64.10
63013;DHT22;62113;45.624;11.700;2023-11-21T00:34:26;11.50;64.50
63013;DHT22;62113;45.624;11.700;2023-11-21T00:36:52;11.50;64.30
63013;DHT22;62113;45.624;11.700;2023-11-21T00:39:17;11.60;64.40
63013;DHT22;62113;45.624;11.700;2023-11-21T00:41:43;11.50;64.50
63013;DHT22;62113;45.624;11.700;2023-11-21T00:44:10;11.50;64.40
63013;DHT22;62113;45.624;11.700;2023-11-21T00:46:36;11.60;64.50
63013;DHT22;62113;45.624;11.700;2023-11-21T00:49:02;11.50;64.40
63013;DHT22;62113;45.624;11.700;2023-11-21T00:51:29;11.60;64.40
63013;DHT22;62113;45.624;11.700;2023-11-21T00:53:55;11.60;63.90
63013;DHT22;62113;45.624;11.700;2023-11-21T00:56:20;11.60;64.00
63013;DHT22;62113;45.624;11.700;2023-11-21T00:58:46;11.60;64.00
63013;DHT22;62113;45.624;11.700;2023-11-21T01:01:15;11.60;64.00
63013;DHT22;62113;45.624;11.700;2023-11-21T01:03:41;11.60;64.50
63013;DHT22;62113;45.624;11.700;2023-11-21T01:06:07;11.60;64.50
63013;DHT22;62113;45.624;11.700;2023-11-21T01:08:34;11.60;64.00
63013;DHT22;62113;45.624;11.700;2023-11-21T01:10:59;11.60;64.20
63013;DHT22;62113;45.624;11.700;2023-11-21T01:13:25;11.60;64.30
63013;DHT22;62113;45.624;11.700;2023-11-21T01:15:53;11.50;64.30
63013;DHT22;62113;45.624;11.700;2023-11-21T01:18:18;11.60;64.00
63013;DHT22;62113;45.624;11.700;2023-11-21T01:20:44;11.60;64.10
63013;DHT22;62113;45.624;11.700;2023-11-21T01:23:12;11.50;64.40
63013;DHT22;62113;45.624;11.700;2023-11-21T01:25:38;11.50;64.50
63013;DHT22;62113;45.624;11.700;2023-11-21T01:28:03;11.50;64.20
63013;DHT22;62113;45.624;11.700;2023-11-21T01:30:29;11.50;64.50
63013;DHT22;62113;45.624;11.700;2023-11-21T01:32:54;11.50;64.60
63013;DHT22;62113;45.624;11.700;2023-11-21T01:35:20;11.50;64.80
63013;DHT22;62113;45.624;11.700;2023-11-21T01:37:45;11.50;64.20
63013;DHT22;62113;45.624;11.700;2023-11-21T01:40:11;11.50;64.60
63013;DHT22;62113;45.624;11.700;2023-11-21T01:42:39;11.50;64.90
63013;DHT22;62113;45.624;11.700;2023-11-21T01:45:05;11.50;65.10
63013;DHT22;62113;45.624;11.700;2023-11-21T01:47:32;11.50;64.90
63013;DHT22;62113;45.624;11.700;2023-11-21T01:49:58;11.50;64.50
63013;DHT22;62113;45.624;11.700;2023-11-21T01:52:24;11.40;65.00
63013;DHT22;62113;45.624;11.700;2023-11-21T01:54:49;11.50;65.10
63013;DHT22;62113;45.624;11.700;2023-11-21T01:57:15;11.40;65.00
63013;DHT22;62113;45.624;11.700;2023-11-21T01:59:41;11.40;65.30
63013;DHT22;62113;45.624;11.700;2023-11-21T02:02:08;11.40;65.40
63013;DHT22;62113;45.624;11.700;2023-11-21T02:04:34;11.40;65.50
63013;DHT22;62113;45.624;11.700;2023-11-21T02:07:00;11.40;65.50
63013;DHT22;62113;45.624;11.700;2023-11-21T02:09:26;11.40;65.50
63013;DHT22;62113;45.624;11.700;2023-11-21T02:11:52;11.40;64.80
63013;DHT22;62113;45.624;11.700;2023-11-21T02:14:22;11.40;64.90
63013;DHT22;62113;45.624;11.700;2023-11-21T02:16:51;11.40;64.80
63013;DHT22;62113;45.624;11.700;2023-11-21T02:19:20;11.30;64.60
63013;DHT22;62113;45.624;11.700;2023-11-21T02:21:51;11.30;65.00
63013;DHT22;62113;45.624;11.700;2023-11-21T02:24:20;11.20;65.10
63013;DHT22;62113;45.624;11.700;2023-11-21T02:26:45;11.20;65.40
63013;DHT22;62113;45.624;11.700;2023-11-21T02:29:11;11.20;65.40
63013;DHT22;62113;45.624;11.700;2023-11-21T02:31:37;11.20;65.10
63013;DHT22;62113;45.624;11.700;2023-11-21T02:34:11;11.20;64.80
63013;DHT22;62113;45.624;11.700;2023-11-21T02:36:38;11.20;65.10
63013;DHT22;62113;45.624;11.700;2023-11-21T02:39:04;11.20;65.10
63013;DHT22;62113;45.624;11.700;2023-11-21T02:41:29;11.20;65.50
63013;DHT22;62113;45.624;11.700;2023-11-21T02:43:55;11.20;65.60
63013;DHT22;62113;45.624;11.700;2023-11-21T02:46:20;11.20;65.60
63013;DHT22;62113;45.624;11.700;2023-11-21T02:48:46;11.20;65.80
63013;DHT22;62113;45.624;11.700;2023-11-21T02:51:11;11.20;66.00
63013;DHT22;62113;45.624;11.700;2023-11-21T02:53:37;11.20;65.60
63013;DHT22;62113;45.624;11.700;2023-11-21T02:56:04;11.20;65.70
63013;DHT22;62113;45.624;11.700;2023-11-21T02:58:29;11.20;65.60
63013;DHT22;62113;45.624;11.700;2023-11-21T03:00:55;11.20;65.50
63013;DHT22;62113;45.624;11.700;2023-11-21T03:03:21;11.20;65.60
63013;DHT22;62113;45.624;11.700;2023-11-21T03:05:49;11.10;64.90
63013;DHT22;62113;45.624;11.700;2023-11-21T03:08:14;11.20;65.30
63013;DHT22;62113;45.624;11.700;2023-11-21T03:10:40;11.10;65.10
63013;DHT22;62113;45.624;11.700;2023-11-21T03:13:05;11.10;65.10
63013;DHT22;62113;45.624;11.700;2023-11-21T03:15:31;11.10;65.50
63013;DHT22;62113;45.624;11.700;2023-11-21T03:17:58;11.10;65.40
63013;DHT22;62113;45.624;11.700;2023-11-21T03:20:23;11.10;65.50
63013;DHT22;62113;45.624;11.700;2023-11-21T03:22:48;11.10;65.50
63013;DHT22;62113;45.624;11.700;2023-11-21T03:25:14;11.10;65.70
63013;DHT22;62113;45.624;11.700;2023-11-21T03:27:41;11.00;65.80
63013;DHT22;62113;45.624;11.700;2023-11-21T03:30:07;11.00;65.90
63013;DHT22;62113;45.624;11.700;2023-11-21T03:32:33;11.00;65.90
63013;DHT22;62113;45.624;11.700;2023-11-21T03:34:59;11.00;65.60
63013;DHT22;62113;45.624;11.700;2023-11-21T03:37:25;11.00;65.80
63013;DHT22;62113;45.624;11.700;2023-11-21T03:39:52;11.00;65.80
63013;DHT22;62113;45.624;11.700;2023-11-21T03:42:18;11.00;65.70
63013;DHT22;62113;45.624;11.700;2023-11-21T03:44:43;10.90;65.60
63013;DHT22;62113;45.624;11.700;2023-11-21T03:47:09;10.90;65.60
63013;DHT22;62113;45.624;11.700;2023-11-21T03:49:35;10.90;65.70
63013;DHT22;62113;45.624;11.700;2023-11-21T03:52:00;10.90;65.80
63013;DHT22;62113;45.624;11.700;2023-11-21T03:54:26;10.90;65.30
63013;DHT22;62113;45.624;11.700;2023-11-21T03:56:51;10.90;65.50
63013;DHT22;62113;45.624;11.700;2023-11-21T03:59:17;10.90;65.80
63013;DHT22;62113;45.624;11.700;2023-11-21T04:01:42;10.90;65.70
63013;DHT22;62113;45.624;11.700;2023-11-21T04:04:08;10.90;65.90
63013;DHT22;62113;45.624;11.700;2023-11-21T04:06:33;10.90;65.70
63013;DHT22;62113;45.624;11.700;2023-11-21T04:09:00;10.90;65.90
63013;DHT22;62113;45.624;11.700;2023-11-21T04:11:25;10.80;66.00
63013;DHT22;62113;45.624;11.700;2023-11-21T04:13:51;10.80;65.90
63013;DHT22;62113;45.624;11.700;2023-11-21T04:16:16;10.80;65.80
63013;DHT22;62113;45.624;11.700;2023-11-21T04:18:42;10.80;65.90
63013;DHT22;62113;45.624;11.700;2023-11-21T04:21:07;10.80;66.00
63013;DHT22;62113;45.624;11.700;2023-11-21T04:23:33;10.80;66.00
63013;DHT22;62113;45.624;11.700;2023-11-21T04:25:59;10.80;65.90
63013;DHT22;62113;45.624;11.700;2023-11-21T04:28:25;10.90;65.20
63013;DHT22;62113;45.624;11.700;2023-11-21T04:30:50;10.80;65.10
63013;DHT22;62113;45.624;11.700;2023-11-21T04:33:16;10.80;65.30
63013;DHT22;62113;45.624;11.700;2023-11-21T04:35:41;10.70;64.90
63013;DHT22;62113;45.624;11.700;2023-11-21T04:38:07;10.80;64.90
63013;DHT22;62113;45.624;11.700;2023-11-21T04:40:33;10.70;65.00
63013;DHT22;62113;45.624;11.700;2023-11-21T04:42:58;10.70;65.10
63013;DHT22;62113;45.624;11.700;2023-11-21T04:45:24;10.70;64.90
63013;DHT22;62113;45.624;11.700;2023-11-21T04:47:50;10.70;65.10
63013;DHT22;62113;45.624;11.700;2023-11-21T04:50:15;10.70;65.20
63013;DHT22;62113;45.624;11.700;2023-11-21T04:52:40;10.60;65.20
63013;DHT22;62113;45.624;11.700;2023-11-21T04:55:06;10.60;65.10
63013;DHT22;62113;45.624;11.700;2023-11-21T04:57:38;10.50;65.00
63013;DHT22;62113;45.624;11.700;2023-11-21T05:00:04;10.50;65.30
63013;DHT22;62113;45.624;11.700;2023-11-21T05:02:31;10.50;65.20
63013;DHT22;62113;45.624;11.700;2023-11-21T05:04:57;10.50;65.00
63013;DHT22;62113;45.624;11.700;2023-11-21T05:07:22;10.40;65.10
63013;DHT22;62113;45.624;11.700;2023-11-21T05:09:50;10.40;65.00
63013;DHT22;62113;45.624;11.700;2023-11-21T05:12:15;10.40;64.90
63013;DHT22;62113;45.624;11.700;2023-11-21T05:14:41;10.40;65.00
63013;DHT22;62113;45.624;11.700;2023-11-21T05:17:07;10.40;65.20
63013;DHT22;62113;45.624;11.700;2023-11-21T05:19:33;10.30;65.30
63013;DHT22;62113;45.624;11.700;2023-11-21T05:22:00;10.30;65.20
63013;DHT22;62113;45.624;11.700;2023-11-21T05:24:26;10.30;64.90
63013;DHT22;62113;45.624;11.700;2023-11-21T05:26:51;10.30;64.80
63013;DHT22;62113;45.624;11.700;2023-11-21T05:29:17;10.40;64.90
63013;DHT22;62113;45.624;11.700;2023-11-21T05:31:42;10.30;64.90
63013;DHT22;62113;45.624;11.700;2023-11-21T05:34:07;10.30;65.00
63013;DHT22;62113;45.624;11.700;2023-11-21T05:36:33;10.30;65.00
63013;DHT22;62113;45.624;11.700;2023-11-21T05:38:59;10.30;64.90
63013;DHT22;62113;45.624;11.700;2023-11-21T05:41:24;10.30;64.80
63013;DHT22;62113;45.624;11.700;2023-11-21T05:43:51;10.30;64.60
63013;DHT22;62113;45.624;11.700;2023-11-21T05:46:16;10.30;64.70
63013;DHT22;62113;45.624;11.700;2023-11-21T05:48:42;10.40;64.50
63013;DHT22;62113;45.624;11.700;2023-11-21T05:51:07;10.40;64.70
63013;DHT22;62113;45.624;11.700;2023-11-21T05:53:33;10.40;64.60
63013;DHT22;62113;45.624;11.700;2023-11-21T05:55:59;10.40;64.60
63013;DHT22;62113;45.624;11.700;2023-11-21T05:58:25;10.40;64.60
63013;DHT22;62113;45.624;11.700;2023-11-21T06:00:50;10.50;64.40
63013;DHT22;62113;45.624;11.700;2023-11-21T06:03:16;10.50;64.30
63013;DHT22;62113;45.624;11.700;2023-11-21T06:05:42;10.50;64.60
63013;DHT22;62113;45.624;11.700;2023-11-21T06:08:08;10.40;64.30
63013;DHT22;62113;45.624;11.700;2023-11-21T06:10:34;10.40;64.50
63013;DHT22;62113;45.624;11.700;2023-11-21T06:12:59;10.40;64.90
63013;DHT22;62113;45.624;11.700;2023-11-21T06:15:25;10.40;64.90
63013;DHT22;62113;45.624;11.700;2023-11-21T06:17:50;10.50;65.00
63013;DHT22;62113;45.624;11.700;2023-11-21T06:20:18;10.50;65.10
63013;DHT22;62113;45.624;11.700;2023-11-21T06:22:44;10.50;65.20
63013;DHT22;62113;45.624;11.700;2023-11-21T06:25:10;10.50;65.20
63013;DHT22;62113;45.624;11.700;2023-11-21T06:27:44;10.60;65.10
63013;DHT22;62113;45.624;11.700;2023-11-21T06:30:10;10.50;65.10
63013;DHT22;62113;45.624;11.700;2023-11-21T06:32:37;10.60;65.20
63013;DHT22;62113;45.624;11.700;2023-11-21T06:35:03;10.60;65.10
63013;DHT22;62113;45.624;11.700;2023-11-21T06:37:29;10.60;64.90
63013;DHT22;62113;45.624;11.700;2023-11-21T06:39:55;10.70;64.80
63013;DHT22;62113;45.624;11.700;2023-11-21T06:42:22;10.70;64.90
63013;DHT22;62113;45.624;11.700;2023-11-21T06:44:48;10.70;64.90
63013;DHT22;62113;45.624;11.700;2023-11-21T06:47:14;10.70;65.00
63013;DHT22;62113;45.624;11.700;2023-11-21T06:49:41;10.70;65.00
63013;DHT22;62113;45.624;11.700;2023-11-21T06:52:06;10.80;64.90
63013;DHT22;62113;45.624;11.700;2023-11-21T06:54:32;10.80;64.80
63013;DHT22;62113;45.624;11.700;2023-11-21T06:56:58;10.80;64.90
63013;DHT22;62113;45.624;11.700;2023-11-21T06:59:23;10.90;64.80
63013;DHT22;62113;45.624;11.700;2023-11-21T07:01:50;11.00;64.60
63013;DHT22;62113;45.624;11.700;2023-11-21T07:04:15;11.00;64.60
63013;DHT22;62113;45.624;11.700;2023-11-21T07:06:41;11.10;64.40
63013;DHT22;62113;45.624;11.700;2023-11-21T07:09:06;11.10;64.40
63013;DHT22;62113;45.624;11.700;2023-11-21T07:11:34;11.20;64.30
63013;DHT22;62113;45.624;11.700;2023-11-21T07:13:59;11.20;64.20
63013;DHT22;62113;45.624;11.700;2023-11-21T07:16:25;11.30;64.10
63013;DHT22;62113;45.624;11.700;2023-11-21T07:18:52;11.30;64.00
63013;DHT22;62113;45.624;11.700;2023-11-21T07:21:17;11.40;64.10
63013;DHT22;62113;45.624;11.700;2023-11-21T07:23:43;11.40;63.90
63013;DHT22;62113;45.624;11.700;2023-11-21T07:26:08;11.40;63.80
63013;DHT22;62113;45.624;11.700;2023-11-21T07:28:36;11.50;63.80
63013;DHT22;62113;45.624;11.700;2023-11-21T07:31:01;11.50;63.80
63013;DHT22;62113;45.624;11.700;2023-11-21T07:33:27;11.50;63.60
63013;DHT22;62113;45.624;11.700;2023-11-21T07:35:52;11.60;63.70
63013;DHT22;62113;45.624;11.700;2023-11-21T07:38:18;11.70;63.80
63013;DHT22;62113;45.624;11.700;2023-11-21T07:40:43;11.70;63.70
63013;DHT22;62113;45.624;11.700;2023-11-21T07:43:09;11.70;63.60
63013;DHT22;62113;45.624;11.700;2023-11-21T07:45:36;11.70;63.50
63013;DHT22;62113;45.624;11.700;2023-11-21T07:48:01;11.70;63.60
63013;DHT22;62113;45.624;11.700;2023-11-21T07:50:28;11.70;63.60
63013;DHT22;62113;45.624;11.700;2023-11-21T07:52:54;11.70;63.70
63013;DHT22;62113;45.624;11.700;2023-11-21T07:55:20;11.70;63.50
63013;DHT22;62113;45.624;11.700;2023-11-21T07:57:45;11.70;63.60
63013;DHT22;62113;45.624;11.700;2023-11-21T08:00:11;11.70;63.60
63013;DHT22;62113;45.624;11.700;2023-11-21T08:02:40;11.80;63.70
63013;DHT22;62113;45.624;11.700;2023-11-21T08:05:11;11.80;63.40
63013;DHT22;62113;45.624;11.700;2023-11-21T08:07:37;11.80;63.20
63013;DHT22;62113;45.624;11.700;2023-11-21T08:10:03;11.80;63.50
63013;DHT22;62113;45.624;11.700;2023-11-21T08:12:30;11.80;63.80
63013;DHT22;62113;45.624;11.700;2023-11-21T08:14:55;11.80;63.80
63013;DHT22;62113;45.624;11.700;2023-11-21T08:17:21;11.80;63.90
63013;DHT22;62113;45.624;11.700;2023-11-21T08:19:46;11.80;64.00
63013;DHT22;62113;45.624;11.700;2023-11-21T08:22:17;11.80;63.90
63013;DHT22;62113;45.624;11.700;2023-11-21T08:24:43;11.90;63.90
63013;DHT22;62113;45.624;11.700;2023-11-21T08:27:09;11.90;63.80
63013;DHT22;62113;45.624;11.700;2023-11-21T08:29:34;11.90;64.10
63013;DHT22;62113;45.624;11.700;2023-11-21T08:32:01;12.00;64.40
63013;DHT22;62113;45.624;11.700;2023-11-21T08:34:27;12.00;64.70
63013;DHT22;62113;45.624;11.700;2023-11-21T08:36:54;12.00;64.80
63013;DHT22;62113;45.624;11.700;2023-11-21T08:39:19;12.00;64.90
63013;DHT22;62113;45.624;11.700;2023-11-21T08:41:45;12.00;64.90
63013;DHT22;62113;45.624;11.700;2023-11-21T08:44:11;12.10;65.00
63013;DHT22;62113;45.624;11.700;2023-11-21T08:46:36;12.10;65.00
63013;DHT22;62113;45.624;11.700;2023-11-21T08:49:04;12.00;64.30
63013;DHT22;62113;45.624;11.700;2023-11-21T08:51:30;12.00;64.10
63013;DHT22;62113;45.624;11.700;2023-11-21T08:53:55;12.00;64.40
63013;DHT22;62113;45.624;11.700;2023-11-21T08:56:24;12.00;64.50
63013;DHT22;62113;45.624;11.700;2023-11-21T08:58:50;12.00;64.80
63013;DHT22;62113;45.624;11.700;2023-11-21T09:01:15;12.10;65.30
63013;DHT22;62113;45.624;11.700;2023-11-21T09:03:41;12.10;64.60
63013;DHT22;62113;45.624;11.700;2023-11-21T09:06:09;12.10;65.20
63013;DHT22;62113;45.624;11.700;2023-11-21T09:08:35;12.10;64.60
63013;DHT22;62113;45.624;11.700;2023-11-21T09:11:00;12.10;66.20
63013;DHT22;62113;45.624;11.700;2023-11-21T09:13:26;12.00;65.60
63013;DHT22;62113;45.624;11.700;2023-11-21T09:15:51;12.00;66.00
63013;DHT22;62113;45.624;11.700;2023-11-21T09:18:17;12.00;65.70
63013;DHT22;62113;45.624;11.700;2023-11-21T09:20:42;12.00;65.80
63013;DHT22;62113;45.624;11.700;2023-11-21T09:23:09;12.00;66.00
63013;DHT22;62113;45.624;11.700;2023-11-21T09:25:35;12.10;66.40
63013;DHT22;62113;45.624;11.700;2023-11-21T09:28:02;12.10;65.90
63013;DHT22;62113;45.624;11.700;2023-11-21T09:30:30;12.10;65.40
63013;DHT22;62113;45.624;11.700;2023-11-21T09:32:56;12.20;65.80
63013;DHT22;62113;45.624;11.700;2023-11-21T09:35:21;12.10;65.80
63013;DHT22;62113;45.624;11.700;2023-11-21T09:37:47;12.20;65.70
63013;DHT22;62113;45.624;11.700;2023-11-21T09:40:12;12.20;66.20
63013;DHT22;62113;45.624;11.700;2023-11-21T09:42:54;12.20;66.10
63013;DHT22;62113;45.624;11.700;2023-11-21T09:48:00;12.20;66.50
63013;DHT22;62113;45.624;11.700;2023-11-21T09:50:26;12.20;66.00
63013;DHT22;62113;45.624;11.700;2023-11-21T09:55:17;12.20;66.50
63013;DHT22;62113;45.624;11.700;2023-11-21T09:57:45;12.20;66.20
63013;DHT22;62113;45.624;11.700;2023-11-21T10:00:11;12.20;66.50
63013;DHT22;62113;45.624;11.700;2023-11-21T10:02:37;12.20;66.90
63013;DHT22;62113;45.624;11.700;2023-11-21T10:05:03;12.20;66.60
63013;DHT22;62113;45.624;11.700;2023-11-21T10:07:29;12.20;66.90
63013;DHT22;62113;45.624;11.700;2023-11-21T10:09:56;12.20;67.00
63013;DHT22;62113;45.624;11.700;2023-11-21T10:12:22;12.20;66.90
63013;DHT22;62113;45.624;11.700;2023-11-21T10:14:49;12.20;66.60
63013;DHT22;62113;45.624;11.700;2023-11-21T10:17:18;12.20;66.70
63013;DHT22;62113;45.624;11.700;2023-11-21T10:19:46;12.20;66.70
63013;DHT22;62113;45.624;11.700;2023-11-21T10:22:12;12.20;66.10
63013;DHT22;62113;45.624;11.700;2023-11-21T10:24:38;12.30;66.50
63013;DHT22;62113;45.624;11.700;2023-11-21T10:27:04;12.20;65.90
63013;DHT22;62113;45.624;11.700;2023-11-21T10:29:29;12.30;66.10
63013;DHT22;62113;45.624;11.700;2023-11-21T10:31:55;12.20;66.80
63013;DHT22;62113;45.624;11.700;2023-11-21T10:34:23;12.30;67.00
63013;DHT22;62113;45.624;11.700;2023-11-21T10:36:49;12.30;67.20
63013;DHT22;62113;45.624;11.700;2023-11-21T10:39:21;12.30;67.00
63013;DHT22;62113;45.624;11.700;2023-11-21T10:41:49;12.30;66.30
63013;DHT22;62113;45.624;11.700;2023-11-21T10:44:17;12.40;66.40
63013;DHT22;62113;45.624;11.700;2023-11-21T10:46:54;12.40;67.20
63013;DHT22;62113;45.624;11.700;2023-11-21T10:49:26;12.40;67.40
63013;DHT22;62113;45.624;11.700;2023-11-21T10:51:53;12.50;67.40
63013;DHT22;62113;45.624;11.700;2023-11-21T10:54:22;12.50;67.50
63013;DHT22;62113;45.624;11.700;2023-11-21T10:56:57;12.50;67.60
63013;DHT22;62113;45.624;11.700;2023-11-21T10:59:24;12.60;67.40
63013;DHT22;62113;45.624;11.700;2023-11-21T11:01:51;12.70;67.30
63013;DHT22;62113;45.624;11.700;2023-11-21T11:04:18;12.70;66.70
63013;DHT22;62113;45.624;11.700;2023-11-21T11:06:44;12.80;66.70
63013;DHT22;62113;45.624;11.700;2023-11-21T11:09:13;13.00;67.30
63013;DHT22;62113;45.624;11.700;2023-11-21T11:11:42;13.00;67.30
63013;DHT22;62113;45.624;11.700;2023-11-21T11:14:12;13.10;67.30
63013;DHT22;62113;45.624;11.700;2023-11-21T11:16:38;13.20;67.30
63013;DHT22;62113;45.624;11.700;2023-11-21T11:19:06;13.30;67.10
63013;DHT22;62113;45.624;11.700;2023-11-21T11:24:13;13.50;66.70
63013;DHT22;62113;45.624;11.700;2023-11-21T11:29:13;13.70;66.50
63013;DHT22;62113;45.624;11.700;2023-11-21T11:31:55;13.70;66.30
63013;DHT22;62113;45.624;11.700;2023-11-21T11:34:29;13.80;66.30
63013;DHT22;62113;45.624;11.700;2023-11-21T11:37:06;13.90;66.30
63013;DHT22;62113;45.624;11.700;2023-11-21T11:39:37;13.90;66.30
63013;DHT22;62113;45.624;11.700;2023-11-21T11:42:04;14.00;66.00
63013;DHT22;62113;45.624;11.700;2023-11-21T11:47:26;13.90;65.70
63013;DHT22;62113;45.624;11.700;2023-11-21T11:50:02;13.90;65.60
63013;DHT22;62113;45.624;11.700;2023-11-21T11:52:53;13.90;65.60
63013;DHT22;62113;45.624;11.700;2023-11-21T11:55:24;14.00;65.40
63013;DHT22;62113;45.624;11.700;2023-11-21T11:57:50;14.00;65.80
63013;DHT22;62113;45.624;11.700;2023-11-21T12:02:51;14.00;65.50
63013;DHT22;62113;45.624;11.700;2023-11-21T12:05:17;14.10;65.40
63013;DHT22;62113;45.624;11.700;2023-11-21T12:07:59;14.10;65.50
63013;DHT22;62113;45.624;11.700;2023-11-21T12:10:26;14.10;65.60
63013;DHT22;62113;45.624;11.700;2023-11-21T12:12:56;14.10;65.60
63013;DHT22;62113;45.624;11.700;2023-11-21T12:15:22;14.10;65.40
63013;DHT22;62113;45.624;11.700;2023-11-21T12:17:48;14.10;65.30
63013;DHT22;62113;45.624;11.700;2023-11-21T12:20:20;14.10;65.20
63013;DHT22;62113;45.624;11.700;2023-11-21T12:22:47;14.10;65.10
63013;DHT22;62113;45.624;11.700;2023-11-21T12:25:16;14.10;65.00
63013;DHT22;62113;45.624;11.700;2023-11-21T12:27:47;14.10;65.10
63013;DHT22;62113;45.624;11.700;2023-11-21T12:30:15;14.10;65.10
63013;DHT22;62113;45.624;11.700;2023-11-21T12:32:41;14.00;65.10
63013;DHT22;62113;45.624;11.700;2023-11-21T12:35:07;14.00;65.10
63013;DHT22;62113;45.624;11.700;2023-11-21T12:37:33;14.00;65.20
63013;DHT22;62113;45.624;11.700;2023-11-21T12:39:59;13.90;65.40
63013;DHT22;62113;45.624;11.700;2023-11-21T12:42:24;13.90;65.70
63013;DHT22;62113;45.624;11.700;2023-11-21T12:47:34;13.80;65.40
63013;DHT22;62113;45.624;11.700;2023-11-21T12:50:01;13.80;65.70
63013;DHT22;62113;45.624;11.700;2023-11-21T12:52:27;13.70;65.70
63013;DHT22;62113;45.624;11.700;2023-11-21T12:54:53;13.70;65.40
63013;DHT22;62113;45.624;11.700;2023-11-21T12:57:19;13.70;65.70
63013;DHT22;62113;45.624;11.700;2023-11-21T12:59:45;13.70;65.90
63013;DHT22;62113;45.624;11.700;2023-11-21T13:02:12;13.70;66.20
63013;DHT22;62113;45.624;11.700;2023-11-21T13:04:39;13.70;65.90
63013;DHT22;62113;45.624;11.700;2023-11-21T13:07:05;13.70;65.50
63013;DHT22;62113;45.624;11.700;2023-11-21T13:09:39;13.70;65.90
63013;DHT22;62113;45.624;11.700;2023-11-21T13:12:06;13.70;66.10
63013;DHT22;62113;45.624;11.700;2023-11-21T13:14:34;13.70;66.00
63013;DHT22;62113;45.624;11.700;2023-11-21T13:16:59;13.70;65.90
63013;DHT22;62113;45.624;11.700;2023-11-21T13:19:25;13.70;66.30
63013;DHT22;62113;45.624;11.700;2023-11-21T13:21:52;13.70;66.30
63013;DHT22;62113;45.624;11.700;2023-11-21T13:24:18;13.70;66.60
63013;DHT22;62113;45.624;11.700;2023-11-21T13:26:44;13.70;66.60
63013;DHT22;62113;45.624;11.700;2023-11-21T13:29:12;13.70;66.90
63013;DHT22;62113;45.624;11.700;2023-11-21T13:31:38;13.70;66.70
63013;DHT22;62113;45.624;11.700;2023-11-21T13:34:04;13.70;67.00
63013;DHT22;62113;45.624;11.700;2023-11-21T13:36:30;13.70;67.60
63013;DHT22;62113;45.624;11.700;2023-11-21T13:38:58;13.70;66.70
63013;DHT22;62113;45.624;11.700;2023-11-21T13:41:24;13.70;67.30
63013;DHT22;62113;45.624;11.700;2023-11-21T13:43:56;13.80;67.80
63013;DHT22;62113;45.624;11.700;2023-11-21T13:46:41;13.80;67.50
63013;DHT22;62113;45.624;11.700;2023-11-21T13:49:06;13.80;68.20
63013;DHT22;62113;45.624;11.700;2023-11-21T13:51:35;13.80;68.40
63013;DHT22;62113;45.624;11.700;2023-11-21T13:54:09;13.80;68.80
63013;DHT22;62113;45.624;11.700;2023-11-21T13:56:36;13.80;68.90
63013;DHT22;62113;45.624;11.700;2023-11-21T13:59:02;13.80;69.10
63013;DHT22;62113;45.624;11.700;2023-11-21T14:01:42;13.80;68.90
63013;DHT22;62113;45.624;11.700;2023-11-21T14:04:20;13.80;68.80
63013;DHT22;62113;45.624;11.700;2023-11-21T14:07:00;13.80;69.10
63013;DHT22;62113;45.624;11.700;2023-11-21T14:09:36;13.80;69.50
63013;DHT22;62113;45.624;11.700;2023-11-21T14:12:08;13.80;69.50
63013;DHT22;62113;45.624;11.700;2023-11-21T14:14:38;13.90;69.50
63013;DHT22;62113;45.624;11.700;2023-11-21T14:17:04;13.90;69.40
63013;DHT22;62113;45.624;11.700;2023-11-21T14:19:32;13.90;69.10
63013;DHT22;62113;45.624;11.700;2023-11-21T14:21:59;13.90;69.10
63013;DHT22;62113;45.624;11.700;2023-11-21T14:24:24;13.90;69.10
63013;DHT22;62113;45.624;11.700;2023-11-21T14:26:51;13.90;69.50
63013;DHT22;62113;45.624;11.700;2023-11-21T14:29:17;13.80;69.80
63013;DHT22;62113;45.624;11.700;2023-11-21T14:31:48;13.90;69.70
63013;DHT22;62113;45.624;11.700;2023-11-21T14:34:15;13.80;69.90
63013;DHT22;62113;45.624;11.700;2023-11-21T14:36:41;13.80;69.70
63013;DHT22;62113;45.624;11.700;2023-11-21T14:39:06;13.80;69.70
63013;DHT22;62113;45.624;11.700;2023-11-21T14:41:35;13.80;69.90
63013;DHT22;62113;45.624;11.700;2023-11-21T14:44:03;13.80;69.50
63013;DHT22;62113;45.624;11.700;2023-11-21T14:46:29;13.80;69.50
63013;DHT22;62113;45.624;11.700;2023-11-21T14:48:55;13.80;69.60
63013;DHT22;62113;45.624;11.700;2023-11-21T14:51:46;13.80;69.30
63013;DHT22;62113;45.624;11.700;2023-11-21T14:54:29;13.80;69.60
63013;DHT22;62113;45.624;11.700;2023-11-21T14:57:10;13.80;69.20
63013;DHT22;62113;45.624;11.700;2023-11-21T14:59:47;13.80;69.30
63013;DHT22;62113;45.624;11.700;2023-11-21T15:02:16;13.80;69.20
63013;DHT22;62113;45.624;11.700;2023-11-21T15:04:43;13.80;69.30
63013;DHT22;62113;45.624;11.700;2023-11-21T15:07:09;13.80;69.20
63013;DHT22;62113;45.624;11.700;2023-11-21T15:09:34;13.80;69.20
63013;DHT22;62113;45.624;11.700;2023-11-21T15:12:04;13.80;69.10
63013;DHT22;62113;45.624;11.700;2023-11-21T15:14:45;13.70;69.00
63013;DHT22;62113;45.624;11.700;2023-11-21T15:17:14;13.70;69.10
63013;DHT22;62113;45.624;11.700;2023-11-21T15:19:52;13.70;68.90
63013;DHT22;62113;45.624;11.700;2023-11-21T15:22:17;13.70;68.90
63013;DHT22;62113;45.624;11.700;2023-11-21T15:24:43;13.70;68.80
63013;DHT22;62113;45.624;11.700;2023-11-21T15:27:12;13.70;68.80
63013;DHT22;62113;45.624;11.700;2023-11-21T15:29:40;13.70;68.80
63013;DHT22;62113;45.624;11.700;2023-11-21T15:32:06;13.70;68.80